Time;durP1;ratioP1;P1;durP2;ratioP2;P2;SDS_P1;SDS_P2;PMS_P1;PMS_P2;Temp;Humidity;BMP_temperature;BMP_pressure;BME280_temperature;BME280_humidity;BME280_pressure;Samples;Min_cycle;Max_cycle;Signal;HPM_P1;HPM_P2
2023/10/26 00:01:27;;;;;;;223.43;46.47;;;9.80;99.90;;;;;;4994764;28;20086;-88
2023/10/26 00:03:53;;;;;;;210.00;46.47;;;9.80;99.90;;;;;;4977572;28;20046;-88
2023/10/26 00:06:19;;;;;;;183.13;44.23;;;9.80;99.90;;;;;;4993222;28;20132;-88
2023/10/26 00:08:44;;;;;;;339.60;53.27;;;9.80;99.90;;;;;;4993234;28;20128;-88
2023/10/26 00:11:10;;;;;;;329.87;53.03;;;9.70;99.90;;;;;;4993463;28;20133;-88
2023/10/26 00:13:36;;;;;;;360.50;54.67;;;9.70;99.90;;;;;;4977023;28;20133;-88
2023/10/26 00:16:02;;;;;;;342.37;51.80;;;9.60;99.90;;;;;;4993732;28;20046;-87
2023/10/26 00:18:27;;;;;;;358.93;53.80;;;9.50;99.90;;;;;;4993209;28;20507;-87
2023/10/26 00:20:58;;;;;;;294.03;48.57;;;9.50;99.90;;;;;;4976912;28;20050;-87
2023/10/26 00:23:24;;;;;;;307.20;49.67;;;9.40;99.90;;;;;;4977772;28;20050;-87
2023/10/26 00:25:49;;;;;;;259.97;47.50;;;9.50;99.90;;;;;;4994585;28;20304;-88
2023/10/26 00:28:15;;;;;;;185.90;43.63;;;9.40;99.90;;;;;;4997078;28;20494;-88
2023/10/26 00:30:41;;;;;;;328.23;51.83;;;9.50;99.90;;;;;;4981157;28;20121;-88
2023/10/26 00:33:06;;;;;;;393.20;54.37;;;9.40;99.90;;;;;;4997133;28;20475;-87
2023/10/26 00:35:32;;;;;;;250.17;45.57;;;9.40;99.90;;;;;;4996708;28;20062;-87
2023/10/26 00:37:58;;;;;;;158.97;38.83;;;9.50;99.90;;;;;;4980761;28;20046;-88
2023/10/26 00:40:23;;;;;;;232.50;44.57;;;9.40;99.90;;;;;;4997264;28;20137;-88
2023/10/26 00:42:49;;;;;;;308.60;53.03;;;9.40;99.90;;;;;;4996864;28;20053;-88
2023/10/26 00:45:15;;;;;;;223.47;44.43;;;9.40;99.90;;;;;;4996781;28;20064;-87
2023/10/26 00:47:41;;;;;;;200.87;44.37;;;9.30;99.90;;;;;;4996960;28;20050;-87
2023/10/26 00:50:07;;;;;;;193.70;42.63;;;9.40;99.90;;;;;;4964499;28;20498;-88
2023/10/26 00:52:36;;;;;;;162.70;39.07;;;9.40;99.90;;;;;;4996399;28;20289;-87
2023/10/26 00:55:07;;;;;;;289.03;52.00;;;9.30;99.90;;;;;;4996052;28;20404;-87
2023/10/26 00:57:33;;;;;;;399.03;57.70;;;9.30;99.90;;;;;;4996903;28;20336;-87
2023/10/26 01:00:00;;;;;;;234.40;46.63;;;9.30;99.90;;;;;;4996725;28;20289;-88
2023/10/26 01:02:26;;;;;;;214.13;42.40;;;9.30;99.90;;;;;;4980284;28;20300;-88
2023/10/26 01:04:52;;;;;;;141.57;39.90;;;9.30;99.90;;;;;;4979897;28;20290;-88
2023/10/26 01:07:17;;;;;;;170.20;42.17;;;9.30;99.90;;;;;;4996410;28;20053;-88
2023/10/26 01:09:43;;;;;;;324.30;53.13;;;9.30;99.90;;;;;;4980151;28;20058;-88
2023/10/26 01:12:09;;;;;;;239.70;44.17;;;9.30;99.90;;;;;;4997015;28;20042;-87
2023/10/26 01:14:36;;;;;;;250.60;47.23;;;9.30;99.90;;;;;;4996808;28;20054;-88
2023/10/26 01:17:02;;;;;;;230.20;46.10;;;9.30;99.90;;;;;;4996477;28;20289;-88
2023/10/26 01:19:43;;;;;;;184.60;42.27;;;9.30;99.90;;;;;;4996435;28;20384;-88
2023/10/26 01:22:09;;;;;;;367.93;57.53;;;9.30;99.90;;;;;;4996363;28;20501;-88
2023/10/26 01:24:35;;;;;;;327.30;53.87;;;9.40;99.90;;;;;;4980779;28;20325;-88
2023/10/26 01:27:01;;;;;;;303.80;51.63;;;9.40;99.90;;;;;;4996818;28;20312;-88
2023/10/26 01:29:27;;;;;;;279.07;51.23;;;9.40;99.90;;;;;;4979921;28;20344;-88
2023/10/26 01:31:53;;;;;;;362.37;58.47;;;9.40;99.90;;;;;;4995886;28;20677;-88
2023/10/26 01:34:19;;;;;;;210.13;43.63;;;9.50;99.90;;;;;;4995638;28;20082;-88
2023/10/26 01:36:45;;;;;;;221.70;46.70;;;9.40;99.90;;;;;;4947275;28;20128;-87
2023/10/26 01:39:11;;;;;;;131.90;40.13;;;9.40;99.90;;;;;;4996005;28;20479;-88
2023/10/26 01:41:37;;;;;;;244.87;49.60;;;9.40;99.90;;;;;;4995748;28;20038;-88
2023/10/26 01:44:03;;;;;;;259.90;49.73;;;9.50;99.90;;;;;;4995677;28;20300;-88
2023/10/26 01:46:29;;;;;;;216.43;46.53;;;9.50;99.90;;;;;;4995423;28;20101;-88
2023/10/26 01:48:54;;;;;;;198.40;45.70;;;9.50;99.90;;;;;;4995920;28;20050;-88
2023/10/26 01:51:20;;;;;;;287.73;51.00;;;9.50;99.90;;;;;;4995618;28;20162;-87
2023/10/26 01:53:46;;;;;;;330.50;55.63;;;9.40;99.90;;;;;;4995352;28;20054;-88
2023/10/26 01:56:12;;;;;;;400.40;59.13;;;9.50;99.90;;;;;;4995010;28;20117;-88
2023/10/26 01:58:37;;;;;;;313.00;54.23;;;9.40;99.90;;;;;;4979307;28;20042;-88
2023/10/26 02:01:06;;;;;;;327.20;54.50;;;9.50;99.90;;;;;;4995349;28;20053;-88
2023/10/26 02:03:32;;;;;;;275.57;50.50;;;9.40;99.90;;;;;;4963837;28;20311;-88
2023/10/26 02:05:57;;;;;;;126.77;39.93;;;9.40;99.90;;;;;;4979121;28;20058;-88
2023/10/26 02:08:23;;;;;;;289.43;55.20;;;9.50;99.90;;;;;;4995221;28;20073;-87
2023/10/26 02:10:49;;;;;;;302.70;55.53;;;9.50;99.90;;;;;;4995258;28;20129;-88
2023/10/26 02:13:14;;;;;;;190.83;45.37;;;9.50;99.90;;;;;;4979227;28;20049;-88
2023/10/26 02:15:40;;;;;;;265.57;50.57;;;9.50;99.90;;;;;;4979223;28;20092;-87
2023/10/26 02:18:06;;;;;;;257.23;50.90;;;9.50;99.90;;;;;;4978789;28;20136;-87
2023/10/26 02:20:35;;;;;;;360.53;61.53;;;9.50;99.90;;;;;;4995027;28;20050;-88
2023/10/26 02:23:02;;;;;;;228.77;51.70;;;9.50;99.90;;;;;;4978834;28;20069;-88
2023/10/26 02:25:28;;;;;;;297.23;59.57;;;9.50;99.90;;;;;;4995481;28;20827;-88
2023/10/26 02:27:53;;;;;;;167.13;45.53;;;9.50;99.90;;;;;;4979600;28;20277;-88
2023/10/26 02:30:19;;;;;;;286.50;55.13;;;9.50;99.90;;;;;;4994663;28;20065;-87
2023/10/26 02:32:45;;;;;;;431.87;64.13;;;9.50;99.90;;;;;;4978611;28;20046;-88
2023/10/26 02:35:10;;;;;;;253.17;53.50;;;9.40;99.90;;;;;;4962329;28;20054;-88
2023/10/26 02:37:39;;;;;;;308.23;58.63;;;9.40;99.90;;;;;;4995516;28;20553;-88
2023/10/26 02:40:08;;;;;;;383.87;61.87;;;9.50;99.90;;;;;;4979117;28;20042;-87
2023/10/26 02:42:34;;;;;;;454.57;65.67;;;9.40;99.90;;;;;;4978667;28;20289;-88
2023/10/26 02:45:00;;;;;;;332.57;61.30;;;9.40;99.90;;;;;;4978640;28;20305;-88
2023/10/26 02:47:26;;;;;;;407.03;68.13;;;9.40;99.90;;;;;;4978379;28;20301;-88
2023/10/26 02:49:52;;;;;;;301.80;60.20;;;9.40;99.90;;;;;;4977673;28;20085;-88
2023/10/26 02:52:17;;;;;;;527.60;76.70;;;9.40;99.90;;;;;;4994251;28;20149;-88
2023/10/26 02:54:43;;;;;;;342.57;66.07;;;9.40;99.90;;;;;;4994210;28;20053;-88
2023/10/26 02:57:09;;;;;;;420.57;69.37;;;9.40;99.90;;;;;;4994292;28;20050;-88
2023/10/26 02:59:35;;;;;;;448.27;73.30;;;9.40;99.90;;;;;;4995075;28;20050;-88
2023/10/26 03:02:00;;;;;;;493.43;75.87;;;9.40;99.90;;;;;;4961732;28;20129;-88
2023/10/26 03:04:26;;;;;;;337.53;62.77;;;9.40;99.90;;;;;;4978093;28;20069;-87
2023/10/26 03:06:52;;;;;;;349.17;64.93;;;9.40;99.90;;;;;;4977675;28;20494;-87
2023/10/26 03:09:17;;;;;;;329.73;63.10;;;9.40;99.90;;;;;;4994054;28;20133;-87
2023/10/26 03:11:43;;;;;;;184.57;52.63;;;9.50;99.90;;;;;;4978712;28;20463;-87
2023/10/26 03:14:09;;;;;;;299.93;59.80;;;9.50;99.90;;;;;;4994156;28;20125;-87
2023/10/26 03:16:35;;;;;;;243.00;57.10;;;9.50;99.90;;;;;;4994804;28;20046;-88
2023/10/26 03:19:01;;;;;;;172.43;49.63;;;9.50;99.90;;;;;;4977815;28;20384;-88
2023/10/26 03:21:27;;;;;;;597.10;86.10;;;9.50;99.90;;;;;;4994441;28;20053;-88
2023/10/26 03:23:53;;;;;;;373.53;65.60;;;9.50;99.90;;;;;;4993909;28;20046;-88
2023/10/26 03:26:23;;;;;;;367.47;63.77;;;9.50;99.90;;;;;;4993638;28;20281;-88
2023/10/26 03:28:50;;;;;;;305.90;59.03;;;9.50;99.90;;;;;;4993573;28;20052;-88
2023/10/26 03:31:16;;;;;;;368.07;64.97;;;9.50;99.90;;;;;;4993729;28;20293;-89
2023/10/26 03:33:42;;;;;;;339.20;60.50;;;9.40;99.90;;;;;;4994598;28;20306;-88
2023/10/26 03:36:15;;;;;;;310.07;60.40;;;9.50;99.90;;;;;;4993271;28;20377;-88
2023/10/26 03:38:42;;;;;;;499.47;70.47;;;9.50;99.90;;;;;;4994404;28;20390;-88
2023/10/26 03:41:08;;;;;;;362.13;62.37;;;9.40;99.90;;;;;;4993549;28;20343;-88
2023/10/26 03:43:34;;;;;;;291.97;58.57;;;9.40;99.90;;;;;;4977372;28;20282;-88
2023/10/26 03:45:59;;;;;;;237.97;55.50;;;9.40;99.90;;;;;;4977577;28;20294;-88
2023/10/26 03:48:25;;;;;;;328.37;63.20;;;9.40;99.90;;;;;;4977328;28;20149;-88
2023/10/26 03:50:51;;;;;;;326.40;62.37;;;9.40;99.90;;;;;;4977509;28;20495;-88
2023/10/26 03:53:17;;;;;;;423.67;68.17;;;9.40;99.90;;;;;;4993163;28;20076;-87
2023/10/26 03:55:42;;;;;;;360.47;67.23;;;9.40;99.90;;;;;;4994075;28;20039;-88
2023/10/26 03:58:08;;;;;;;281.40;61.93;;;9.40;99.90;;;;;;4977113;28;20046;-89
2023/10/26 04:00:34;;;;;;;410.03;69.43;;;9.40;99.90;;;;;;4960309;28;20050;-88
2023/10/26 04:02:59;;;;;;;375.30;67.60;;;9.40;99.90;;;;;;4977073;28;20043;-88
2023/10/26 04:05:25;;;;;;;447.97;74.77;;;9.30;99.90;;;;;;4977327;28;20181;-88
2023/10/26 04:07:51;;;;;;;495.70;81.50;;;9.30;99.90;;;;;;4977076;28;20042;-88
2023/10/26 04:10:17;;;;;;;465.43;75.87;;;9.30;99.90;;;;;;4993091;28;20054;-88
2023/10/26 04:12:43;;;;;;;471.17;77.00;;;9.30;99.90;;;;;;4993232;28;20054;-88
2023/10/26 04:15:10;;;;;;;541.07;86.07;;;9.30;99.90;;;;;;4992737;28;20320;-87
2023/10/26 04:17:35;;;;;;;662.37;95.73;;;9.30;99.90;;;;;;4993141;28;20046;-88
2023/10/26 04:20:01;;;;;;;466.00;80.70;;;9.30;99.90;;;;;;4993073;28;20289;-88
2023/10/26 04:22:27;;;;;;;573.50;88.23;;;9.30;99.90;;;;;;4976555;28;20057;-88
2023/10/26 04:24:53;;;;;;;528.00;84.77;;;9.40;99.90;;;;;;4976860;28;20050;-87
2023/10/26 04:27:19;;;;;;;432.63;73.30;;;9.40;99.90;;;;;;4977087;28;20348;-88
2023/10/26 04:29:45;;;;;;;305.57;67.27;;;9.40;99.90;;;;;;4992503;28;20054;-88
2023/10/26 04:32:11;;;;;;;527.10;84.77;;;9.40;99.90;;;;;;4993692;28;20305;-88
2023/10/26 04:34:43;;;;;;;784.70;95.47;;;9.40;99.90;;;;;;4993166;28;20050;-88
2023/10/26 04:37:09;;;;;;;847.30;104.37;;;9.40;99.90;;;;;;4992869;28;20372;-88
2023/10/26 04:39:35;;;;;;;719.10;83.33;;;9.30;99.90;;;;;;4976750;28;20312;-88
2023/10/26 04:42:03;;;;;;;855.67;98.90;;;9.30;99.90;;;;;;4977268;28;20297;-88
2023/10/26 04:44:28;;;;;;;708.27;90.60;;;9.30;99.90;;;;;;4976659;28;20053;-88
2023/10/26 04:46:54;;;;;;;732.30;83.23;;;9.30;99.90;;;;;;4976678;28;20289;-88
2023/10/26 04:49:20;;;;;;;1050.43;108.03;;;9.20;99.90;;;;;;4977132;28;20052;-88
2023/10/26 04:51:45;;;;;;;919.53;98.77;;;9.20;99.90;;;;;;4976938;28;20055;-88
2023/10/26 04:54:11;;;;;;;849.40;90.37;;;9.20;99.90;;;;;;4976370;28;20050;-88
2023/10/26 04:56:37;;;;;;;702.67;77.70;;;9.20;99.90;;;;;;4976514;28;20047;-88
2023/10/26 04:59:02;;;;;;;796.13;86.83;;;9.10;99.90;;;;;;4977385;28;20081;-88
2023/10/26 05:01:28;;;;;;;1045.97;106.53;;;9.10;99.90;;;;;;4993324;28;20110;-88
2023/10/26 05:03:54;;;;;;;724.20;83.63;;;9.10;99.90;;;;;;4992757;28;20391;-88
2023/10/26 05:06:20;;;;;;;921.60;95.23;;;9.00;99.90;;;;;;4977289;28;20052;-88
2023/10/26 05:08:46;;;;;;;1060.10;104.77;;;9.00;99.90;;;;;;4992403;28;20112;-88
2023/10/26 05:11:12;;;;;;;839.93;95.10;;;9.00;99.90;;;;;;4976695;28;20483;-88
2023/10/26 05:13:38;;;;;;;684.37;81.10;;;9.00;99.90;;;;;;4996113;28;20789;-88
2023/10/26 05:16:04;;;;;;;804.93;87.40;;;9.00;99.90;;;;;;4980902;28;20372;-89
2023/10/26 05:18:30;;;;;;;747.97;88.87;;;9.00;99.90;;;;;;4996215;28;20132;-89
2023/10/26 05:20:56;;;;;;;576.53;77.67;;;8.90;99.90;;;;;;4980007;28;20393;-88
2023/10/26 05:23:21;;;;;;;495.63;70.97;;;8.90;99.90;;;;;;4980125;28;20057;-89
2023/10/26 05:25:48;;;;;;;719.70;85.57;;;9.00;99.90;;;;;;4979873;28;20050;-89
2023/10/26 05:28:14;;;;;;;863.03;95.77;;;9.00;99.90;;;;;;4980419;28;20470;-88
2023/10/26 05:30:40;;;;;;;718.93;83.70;;;9.00;99.90;;;;;;4979789;28;20301;-89
2023/10/26 05:33:06;;;;;;;709.43;85.00;;;9.00;99.90;;;;;;4980420;28;20355;-88
2023/10/26 05:35:32;;;;;;;584.53;72.23;;;8.90;99.90;;;;;;4979503;28;20294;-88
2023/10/26 05:37:58;;;;;;;597.30;74.90;;;8.80;99.90;;;;;;4996355;28;20289;-88
2023/10/26 05:40:24;;;;;;;509.80;73.53;;;8.80;99.90;;;;;;4979896;28;20129;-89
2023/10/26 05:42:49;;;;;;;749.47;86.90;;;8.90;99.90;;;;;;4980299;28;20047;-89
2023/10/26 05:45:15;;;;;;;678.50;84.27;;;8.90;99.90;;;;;;4980310;28;20073;-88
2023/10/26 05:47:41;;;;;;;821.10;92.53;;;8.90;99.90;;;;;;4995892;28;20057;-89
2023/10/26 05:50:07;;;;;;;779.10;87.53;;;8.90;99.90;;;;;;4980211;28;20301;-88
2023/10/26 05:52:33;;;;;;;674.27;82.80;;;8.90;99.90;;;;;;4979252;28;20557;-89
2023/10/26 05:54:59;;;;;;;428.70;66.47;;;8.90;99.90;;;;;;4979253;28;20306;-88
2023/10/26 05:57:27;;;;;;;883.93;95.10;;;8.90;99.90;;;;;;4994995;28;20149;-89
2023/10/26 05:59:53;;;;;;;800.67;90.20;;;8.90;99.90;;;;;;4978829;28;20046;-88
2023/10/26 06:02:19;;;;;;;909.00;99.27;;;8.80;99.90;;;;;;4995147;28;20281;-88
2023/10/26 06:04:45;;;;;;;623.20;78.70;;;8.80;99.90;;;;;;4979140;28;20385;-88
2023/10/26 06:07:10;;;;;;;601.10;76.97;;;8.80;99.90;;;;;;4978791;28;20046;-88
2023/10/26 06:09:36;;;;;;;668.93;82.23;;;8.80;99.90;;;;;;4995492;28;20057;-89
2023/10/26 06:12:02;;;;;;;619.07;77.17;;;8.70;99.90;;;;;;4979618;28;20482;-87
2023/10/26 06:14:28;;;;;;;798.47;91.43;;;8.70;99.90;;;;;;4995757;28;20463;-88
2023/10/26 06:16:53;;;;;;;550.97;71.10;;;8.70;99.90;;;;;;4995347;28;20073;-88
2023/10/26 06:19:19;;;;;;;744.30;86.77;;;8.60;99.90;;;;;;4979658;28;20100;-88
2023/10/26 06:21:45;;;;;;;520.70;71.33;;;8.60;99.90;;;;;;4995149;28;20581;-89
2023/10/26 06:24:10;;;;;;;406.93;64.27;;;8.70;99.90;;;;;;4994425;28;20057;-89
2023/10/26 06:26:36;;;;;;;855.53;90.60;;;8.80;99.90;;;;;;4996677;28;20085;-89
2023/10/26 06:29:02;;;;;;;948.93;100.13;;;8.80;99.90;;;;;;4994979;28;20135;-88
2023/10/26 06:31:28;;;;;;;470.87;64.47;;;8.80;99.90;;;;;;4978106;28;20049;-89
2023/10/26 06:33:53;;;;;;;605.20;72.57;;;8.80;99.90;;;;;;4978661;28;20054;-88
2023/10/26 06:36:19;;;;;;;485.70;68.40;;;8.80;99.90;;;;;;4994509;28;20137;-88
2023/10/26 06:38:45;;;;;;;888.43;95.70;;;8.80;99.90;;;;;;4978797;28;20081;-88
2023/10/26 06:41:11;;;;;;;759.83;87.60;;;8.90;99.90;;;;;;4994627;28;20054;-88
2023/10/26 06:43:37;;;;;;;472.63;68.80;;;8.90;99.90;;;;;;4994537;28;20097;-88
2023/10/26 06:46:04;;;;;;;759.37;87.40;;;8.90;99.90;;;;;;4994525;28;20300;-88
2023/10/26 06:48:30;;;;;;;664.27;82.63;;;8.90;99.90;;;;;;4994671;28;20286;-87
2023/10/26 06:51:03;;;;;;;733.43;86.50;;;8.90;99.90;;;;;;4995150;28;20606;-88
2023/10/26 06:53:29;;;;;;;786.80;92.30;;;8.90;99.90;;;;;;4994214;28;20316;-84
2023/10/26 06:55:55;;;;;;;495.07;67.00;;;8.90;99.90;;;;;;4994330;28;20753;-84
2023/10/26 06:58:21;;;;;;;435.70;62.13;;;8.90;99.90;;;;;;4978401;28;20300;-84
2023/10/26 07:00:46;;;;;;;529.23;70.20;;;8.90;99.90;;;;;;4977999;28;20541;-84
2023/10/26 07:03:13;;;;;;;776.83;90.80;;;8.80;99.90;;;;;;4994963;28;20054;-84
2023/10/26 07:05:39;;;;;;;710.20;84.27;;;8.70;99.90;;;;;;4995096;28;20073;-84
2023/10/26 07:08:04;;;;;;;462.07;64.03;;;8.70;99.90;;;;;;4993797;28;20281;-82
2023/10/26 07:10:31;;;;;;;610.33;76.00;;;8.70;99.90;;;;;;4995788;28;20290;-85
2023/10/26 07:12:57;;;;;;;561.67;69.23;;;8.70;99.90;;;;;;4994080;28;20057;-82
2023/10/26 07:15:22;;;;;;;480.33;65.87;;;8.70;99.90;;;;;;4993716;28;20820;-83
2023/10/26 07:17:48;;;;;;;818.23;85.33;;;8.70;99.90;;;;;;4994228;28;20050;-83
2023/10/26 07:20:14;;;;;;;485.93;51.47;;;8.70;99.90;;;;;;4993998;28;20060;-82
2023/10/26 07:22:40;;;;;;;696.30;80.63;;;8.60;99.90;;;;;;4994134;28;20133;-83
2023/10/26 07:25:06;;;;;;;397.53;58.00;;;8.60;99.90;;;;;;4995422;28;20364;-82
2023/10/26 07:27:32;;;;;;;575.03;65.00;;;8.60;99.90;;;;;;4977920;28;20058;-84
2023/10/26 07:30:01;;;;;;;509.13;59.27;;;8.70;99.90;;;;;;4994688;28;20301;-83
2023/10/26 07:32:27;;;;;;;489.93;67.17;;;8.60;99.90;;;;;;4977297;28;20141;-83
2023/10/26 07:34:54;;;;;;;387.10;58.97;;;8.60;99.90;;;;;;4993794;28;20392;-82
2023/10/26 07:37:19;;;;;;;366.70;48.07;;;8.60;99.90;;;;;;4993404;28;20054;-83
2023/10/26 07:39:45;;;;;;;414.23;52.10;;;8.60;99.90;;;;;;4994621;28;20340;-83
2023/10/26 07:42:11;;;;;;;536.00;64.87;;;8.50;99.90;;;;;;4993541;28;20133;-82
2023/10/26 07:44:37;;;;;;;469.17;58.77;;;8.60;99.90;;;;;;4995223;28;20042;-82
2023/10/26 07:47:04;;;;;;;647.40;68.40;;;8.60;99.90;;;;;;4993556;28;20046;-82
2023/10/26 07:49:31;;;;;;;425.00;51.87;;;8.70;99.90;;;;;;4994523;28;20289;-82
2023/10/26 07:51:56;;;;;;;503.33;58.73;;;8.70;99.90;;;;;;4993372;28;20321;-82
2023/10/26 07:54:22;;;;;;;501.17;61.83;;;8.70;99.90;;;;;;4992835;28;20306;-83
2023/10/26 07:56:48;;;;;;;526.07;64.40;;;8.70;99.90;;;;;;4993355;28;20139;-83
2023/10/26 07:59:13;;;;;;;531.27;63.77;;;8.70;99.90;;;;;;4994552;28;20126;-83
2023/10/26 08:01:39;;;;;;;439.37;56.47;;;8.80;99.90;;;;;;4977284;28;20390;-83
2023/10/26 08:04:05;;;;;;;395.47;54.50;;;8.80;99.90;;;;;;4977097;28;20042;-81
2023/10/26 08:06:31;;;;;;;456.43;62.80;;;8.80;99.90;;;;;;4993338;28;20129;-82
2023/10/26 08:08:58;;;;;;;451.27;58.67;;;8.90;99.90;;;;;;4993598;28;20372;-82
2023/10/26 08:11:24;;;;;;;385.13;56.13;;;8.90;99.90;;;;;;4993228;28;20060;-83
2023/10/26 08:13:50;;;;;;;465.60;62.53;;;8.90;99.90;;;;;;4994551;28;20301;-83
2023/10/26 08:16:16;;;;;;;258.87;46.80;;;8.90;99.90;;;;;;4993224;28;20149;-84
2023/10/26 08:18:42;;;;;;;291.33;50.70;;;9.00;99.90;;;;;;4993104;28;20372;-85
2023/10/26 08:21:08;;;;;;;385.30;61.10;;;9.00;99.90;;;;;;4994326;28;20061;-83
2023/10/26 08:23:34;;;;;;;268.93;52.37;;;9.00;99.90;;;;;;4993117;28;20050;-83
2023/10/26 08:26:07;;;;;;;311.23;56.83;;;9.00;99.90;;;;;;4994566;28;20649;-82
2023/10/26 08:28:33;;;;;;;300.63;56.63;;;9.10;99.90;;;;;;4994116;28;20082;-82
2023/10/26 08:31:01;;;;;;;269.23;54.53;;;9.10;99.90;;;;;;4994032;28;20354;-82
2023/10/26 08:33:28;;;;;;;258.20;54.53;;;9.20;99.90;;;;;;4992700;28;20320;-77
2023/10/26 08:35:54;;;;;;;258.13;54.37;;;9.20;99.90;;;;;;4993546;28;20781;-82
2023/10/26 08:38:20;;;;;;;277.10;57.57;;;9.20;99.90;;;;;;4993931;28;20292;-81
2023/10/26 08:40:51;;;;;;;272.80;58.47;;;9.30;99.90;;;;;;4993476;28;20082;-83
2023/10/26 08:43:17;;;;;;;254.47;56.90;;;9.30;99.90;;;;;;4993912;28;20096;-83
2023/10/26 08:45:45;;;;;;;301.37;61.60;;;9.40;99.90;;;;;;4993961;28;20297;-83
2023/10/26 08:48:16;;;;;;;311.70;57.30;;;9.40;99.90;;;;;;4997514;28;20599;-83
2023/10/26 08:50:42;;;;;;;300.37;58.30;;;9.40;99.90;;;;;;4998107;28;20288;-84
2023/10/26 08:53:08;;;;;;;330.73;59.80;;;9.40;99.90;;;;;;4997439;28;20290;-83
2023/10/26 08:55:38;;;;;;;293.93;55.30;;;9.50;99.90;;;;;;4997684;28;20116;-82
2023/10/26 08:58:04;;;;;;;312.83;57.03;;;9.40;99.90;;;;;;4996601;28;20297;-82
2023/10/26 09:00:30;;;;;;;383.90;55.70;;;9.50;99.90;;;;;;4997341;28;20288;-78
2023/10/26 09:02:56;;;;;;;289.37;53.83;;;9.40;99.90;;;;;;4997588;28;20046;-86
2023/10/26 09:05:22;;;;;;;288.13;52.27;;;9.50;99.90;;;;;;4996566;28;20301;-82
2023/10/26 09:07:49;;;;;;;378.47;62.80;;;9.40;99.90;;;;;;4996470;28;20788;-79
2023/10/26 09:10:36;;;;;;;335.20;56.67;;;9.40;99.90;;;;;;4998264;28;20117;-83
2023/10/26 09:13:06;;;;;;;363.00;60.77;;;9.40;99.90;;;;;;4996926;28;20832;-81
2023/10/26 09:15:49;;;;;;;305.90;57.90;;;9.40;99.90;;;;;;4997284;28;20297;-80
2023/10/26 09:18:15;;;;;;;473.37;69.93;;;9.50;99.90;;;;;;4997295;28;20365;-80
2023/10/26 09:20:45;;;;;;;382.30;63.70;;;9.50;99.90;;;;;;4997751;28;20277;-81
2023/10/26 09:23:30;;;;;;;325.50;63.03;;;9.50;99.90;;;;;;4997467;28;20286;-82
2023/10/26 09:26:04;;;;;;;380.63;62.75;;;9.50;99.90;;;;;;4997002;28;20352;-82
2023/10/26 09:28:47;;;;;;;272.50;56.13;;;9.60;99.90;;;;;;4996992;28;20046;-84
2023/10/26 09:31:13;;;;;;;231.40;53.17;;;9.60;99.90;;;;;;4996884;28;20359;-83
2023/10/26 09:33:39;;;;;;;210.07;50.33;;;9.60;99.90;;;;;;4963697;28;20309;-80
2023/10/26 09:36:19;;;;;;;213.70;52.53;;;9.60;99.90;;;;;;4996973;28;20501;-83
2023/10/26 09:38:44;;;;;;;224.00;51.03;;;9.60;99.90;;;;;;4996209;28;20487;-82
2023/10/26 09:41:18;;;;;;;210.23;53.03;;;9.60;99.90;;;;;;4995828;28;20297;-82
2023/10/26 09:43:44;;;;;;;211.97;53.73;;;9.60;99.90;;;;;;4979921;28;20093;-83
2023/10/26 09:46:11;;;;;;;180.33;49.87;;;9.60;99.90;;;;;;4996968;28;20317;-82
2023/10/26 09:48:37;;;;;;;217.13;54.80;;;9.60;99.90;;;;;;4996775;28;20077;-82
2023/10/26 09:51:04;;;;;;;172.97;51.57;;;9.70;99.90;;;;;;4996709;28;20290;-82
2023/10/26 09:53:33;;;;;;;140.87;47.03;;;9.70;99.90;;;;;;4995668;28;20654;-82
2023/10/26 09:56:01;;;;;;;178.03;48.63;;;9.70;99.90;;;;;;4995636;28;20296;-82
2023/10/26 09:58:33;;;;;;;139.43;48.17;;;9.70;99.90;;;;;;4995283;28;20420;-81
2023/10/26 10:00:59;;;;;;;175.60;51.07;;;9.70;99.90;;;;;;4996820;28;20285;-84
2023/10/26 10:03:28;;;;;;;141.60;48.27;;;9.80;99.90;;;;;;4995336;28;20285;-81
2023/10/26 10:05:54;;;;;;;109.50;44.97;;;9.80;99.90;;;;;;4995808;28;20471;-82
2023/10/26 10:08:58;;;;;;;116.73;44.07;;;9.80;99.90;;;;;;4995563;28;20412;-81
2023/10/26 10:11:23;;;;;;;118.40;46.30;;;9.80;99.90;;;;;;4995405;28;20541;-80
2023/10/26 10:13:49;;;;;;;142.97;49.23;;;9.80;99.90;;;;;;4995164;28;20297;-81
2023/10/26 10:16:45;;;;;;;163.57;49.77;;;9.90;99.90;;;;;;4996475;28;20046;-81
2023/10/26 10:19:18;;;;;;;;;;;9.90;99.90;;;;;;4983904;28;20058;-82
2023/10/26 10:21:44;;;;;;;83.60;39.50;;;10.00;99.90;;;;;;4996172;28;20242;-79
2023/10/26 10:24:09;;;;;;;65.87;34.93;;;10.00;99.90;;;;;;4996185;28;20327;-83
2023/10/26 10:27:07;;;;;;;91.43;40.13;;;9.90;99.90;;;;;;4978918;28;20305;-79
2023/10/26 10:29:32;;;;;;;86.67;40.13;;;10.00;99.90;;;;;;4996002;28;20050;-80
2023/10/26 10:31:58;;;;;;;95.87;44.07;;;10.00;99.90;;;;;;4995241;28;20300;-81
2023/10/26 10:34:33;;;;;;;78.67;38.87;;;10.00;99.90;;;;;;4995886;28;20052;-81
2023/10/26 10:37:22;;;;;;;85.00;41.20;;;10.10;99.90;;;;;;4995484;28;20070;-82
2023/10/26 10:40:16;;;;;;;66.70;36.20;;;10.20;99.90;;;;;;4995688;28;20138;-81
2023/10/26 10:42:51;;;;;;;81.83;39.10;;;10.20;99.90;;;;;;4994576;28;20867;-81
2023/10/26 10:45:17;;;;;;;56.13;34.78;;;10.30;99.90;;;;;;4994842;28;20297;-81
2023/10/26 10:47:46;;;;;;;65.70;35.37;;;10.40;99.90;;;;;;4994951;28;20050;-80
2023/10/26 10:50:20;;;;;;;50.73;31.10;;;10.30;99.90;;;;;;4995605;28;20286;-81
2023/10/26 10:52:51;;;;;;;48.20;32.23;;;10.40;99.90;;;;;;4996236;28;20375;-79
2023/10/26 10:55:30;;;;;;;61.57;33.43;;;10.40;99.90;;;;;;4994238;28;20313;-83
2023/10/26 10:57:56;;;;;;;63.10;34.07;;;10.40;99.90;;;;;;4994524;28;20294;-82
2023/10/26 11:00:26;;;;;;;52.10;32.10;;;10.40;99.90;;;;;;4995570;28;20368;-83
2023/10/26 11:02:58;;;;;;;54.37;32.70;;;10.40;99.90;;;;;;4994143;28;20298;-81
2023/10/26 11:05:40;;;;;;;58.43;34.30;;;10.40;99.90;;;;;;4995389;28;20674;-83
2023/10/26 11:08:06;;;;;;;53.93;33.70;;;10.40;99.90;;;;;;4993812;28;20292;-82
2023/10/26 11:10:33;;;;;;;50.67;31.73;;;10.40;99.90;;;;;;4993469;28;20301;-83
2023/10/26 11:12:59;;;;;;;67.73;36.37;;;10.40;99.90;;;;;;4978035;28;20285;-85
2023/10/26 11:15:35;;;;;;;47.53;30.33;;;10.50;99.90;;;;;;4977664;28;20397;-82
2023/10/26 11:18:03;;;;;;;42.60;29.10;;;10.50;99.90;;;;;;4994192;28;20050;-84
2023/10/26 11:20:37;;;;;;;43.17;29.80;;;10.60;99.90;;;;;;4994815;28;20362;-84
2023/10/26 11:23:07;;;;;;;30.73;24.17;;;10.60;99.90;;;;;;4994689;28;20753;-84
2023/10/26 11:25:34;;;;;;;53.10;31.17;;;10.60;99.90;;;;;;4993845;28;20356;-82
2023/10/26 11:28:00;;;;;;;36.83;27.07;;;10.70;99.90;;;;;;4993834;28;20289;-81
2023/10/26 11:30:26;;;;;;;41.83;29.57;;;10.70;99.90;;;;;;4995372;28;20376;-82
2023/10/26 11:32:51;;;;;;;41.23;28.57;;;10.70;99.90;;;;;;4993674;28;20512;-81
2023/10/26 11:35:17;;;;;;;46.60;30.07;;;10.70;99.90;;;;;;4993128;28;20074;-86
2023/10/26 11:37:45;;;;;;;39.93;28.57;;;10.80;99.90;;;;;;4995504;28;20062;-83
2023/10/26 11:40:13;;;;;;;42.93;29.87;;;10.80;99.90;;;;;;4994384;28;20053;-78
2023/10/26 11:42:52;;;;;;;35.97;26.70;;;10.80;99.90;;;;;;4994636;28;20372;-80
2023/10/26 11:45:20;;;;;;;35.90;27.07;;;10.80;99.90;;;;;;4994615;28;20337;-81
2023/10/26 11:47:54;;;;;;;39.37;27.13;;;10.80;99.90;;;;;;4993228;28;20392;-83
2023/10/26 11:50:25;;;;;;;32.93;25.60;;;10.70;99.90;;;;;;4994363;28;20293;-83
2023/10/26 11:52:53;;;;;;;36.13;26.13;;;10.70;99.90;;;;;;4994247;28;20288;-84
2023/10/26 11:55:21;;;;;;;37.20;26.17;;;10.60;99.90;;;;;;4992933;28;20387;-82
2023/10/26 11:57:47;;;;;;;36.53;27.50;;;10.60;99.90;;;;;;4994432;28;20860;-82
2023/10/26 12:00:14;;;;;;;39.07;27.33;;;10.60;99.90;;;;;;4994345;28;20288;-81
2023/10/26 12:02:40;;;;;;;42.17;27.40;;;10.60;99.90;;;;;;4994310;28;20290;-81
2023/10/26 12:05:07;;;;;;;35.97;26.50;;;10.50;99.90;;;;;;4995040;28;20273;-83
2023/10/26 12:07:33;;;;;;;29.77;22.80;;;10.50;99.90;;;;;;4994280;28;20286;-86
2023/10/26 12:10:02;;;;;;;36.73;27.17;;;10.50;99.90;;;;;;4994211;28;20424;-78
2023/10/26 12:12:27;;;;;;;35.33;25.27;;;10.50;99.90;;;;;;4994067;28;20289;-79
2023/10/26 12:14:53;;;;;;;33.73;24.80;;;10.50;99.90;;;;;;4994354;28;20310;-82
2023/10/26 12:17:19;;;;;;;46.43;28.03;;;10.60;99.90;;;;;;4977000;28;20050;-81
2023/10/26 12:19:44;;;;;;;32.30;24.23;;;10.70;99.90;;;;;;4994070;28;20054;-81
2023/10/26 12:22:10;;;;;;;26.93;21.97;;;10.80;99.90;;;;;;4993317;28;20046;-83
2023/10/26 12:24:36;;;;;;;32.63;23.93;;;10.70;99.90;;;;;;4976711;28;20465;-81
2023/10/26 12:27:02;;;;;;;32.20;22.80;;;10.70;99.90;;;;;;4994557;28;20050;-81
2023/10/26 12:29:29;;;;;;;31.73;24.93;;;10.60;99.90;;;;;;4994635;28;20050;-81